Berlin, Arkansas
Current Conditions -  °F | °C
As of 3:35 PM on Monday 24 Nov 2014 (Local Time) from KBQP Reporting Station
Clear Clear  
Wind Chill: 60°   Ceiling: Unl
Heat Index: 60°   Visibility: 10mi
Dew Point: 30°   Wind: 3mph
Humidity: 31%   Direction: 250°WSW
Pressure: 30"   Gusts: NA
Location:  33.1762°N, 91.7595°W
Report Text: KBQP 242135Z AUTO 25003KT 10SM CLR 16/M01 A3000 RMK AO2 T01581013
Loading
Personal Weather Stations






























Interactive Weather Map New forecast layout! Learn more

10-Day Weather Forecast

Advertisements
Track Severe Weather on mobile